Time;durP1;ratioP1;P1;durP2;ratioP2;P2;SDS_P1;SDS_P2;PMS_P1;PMS_P2;Temp;Humidity;BMP_temperature;BMP_pressure;BME280_temperature;BME280_humidity;BME280_pressure;Samples;Min_cycle;Max_cycle;Signal;HPM_P1;HPM_P2
2022/10/08 00:01:06;;;;;;;1.80;1.60;;;;;;;12.31;100.00;100433.06;6335703;22;20076;-83
2022/10/08 00:03:35;;;;;;;1.63;1.50;;;;;;;12.30;100.00;100437.84;6308898;22;20441;-82
2022/10/08 00:06:03;;;;;;;1.23;1.13;;;;;;;12.30;100.00;100437.06;6336181;22;20045;-83
2022/10/08 00:08:31;;;;;;;2.30;1.15;;;;;;;12.29;100.00;100438.31;6338011;22;20056;-83
2022/10/08 00:11:02;;;;;;;2.28;2.13;;;;;;;12.25;100.00;100423.72;6310516;22;20007;-83
2022/10/08 00:13:39;;;;;;;1.88;1.73;;;;;;;12.32;100.00;100440.22;6337461;22;20336;-83
2022/10/08 00:16:12;;;;;;;2.65;2.40;;;;;;;12.34;100.00;100432.97;6336965;22;20155;-75
2022/10/08 00:18:39;;;;;;;1.40;1.30;;;;;;;12.31;100.00;100427.50;6337704;22;20011;-75
2022/10/08 00:21:31;;;;;;;3.55;1.50;;;;;;;12.32;100.00;100437.44;6309388;22;20256;-75
2022/10/08 00:23:57;;;;;;;3.40;2.72;;;;;;;12.30;100.00;100431.50;6338281;22;20030;-75
2022/10/08 00:26:25;;;;;;;2.70;2.25;;;;;;;12.30;100.00;100432.28;6337531;22;20060;-75
2022/10/08 00:28:53;;;;;;;1.15;1.05;;;;;;;12.21;100.00;100418.25;6336850;22;20080;-76
2022/10/08 00:31:24;;;;;;;3.90;2.00;;;;;;;12.20;100.00;100413.13;6337315;22;20011;-75
2022/10/08 00:33:53;;;;;;;1.70;1.33;;;;;;;12.14;100.00;100408.09;6310096;22;20021;-84
2022/10/08 00:36:18;;;;;;;2.40;1.98;;;;;;;12.18;100.00;100404.44;6283530;22;20341;-85
2022/10/08 00:38:44;;;;;;;2.35;2.08;;;;;;;12.12;100.00;100396.63;6337328;22;20444;-83
2022/10/08 00:41:21;;;;;;;2.05;1.85;;;;;;;12.05;100.00;100387.72;6337318;22;20488;-83
2022/10/08 00:43:51;;;;;;;1.63;1.52;;;;;;;12.03;100.00;100390.91;6283830;22;20015;-83
2022/10/08 00:46:24;;;;;;;2.00;1.85;;;;;;;12.01;100.00;100390.56;6337139;22;20021;-83
2022/10/08 00:49:02;;;;;;;1.67;1.58;;;;;;;12.02;100.00;100389.34;6337189;22;20018;-84
2022/10/08 00:51:28;;;;;;;2.83;1.77;;;;;;;12.02;100.00;100389.34;6335416;22;20065;-83
2022/10/08 00:53:54;;;;;;;3.10;2.50;;;;;;;11.95;100.00;100378.44;6337230;22;20013;-75
2022/10/08 00:56:20;;;;;;;2.10;1.77;;;;;;;11.84;100.00;100383.50;6309768;22;20073;-75
2022/10/08 00:58:47;;;;;;;1.67;1.58;;;;;;;11.67;100.00;100382.72;6306709;22;20468;-75
2022/10/08 01:03:54;;;;;;;1.48;1.35;;;;;;;11.67;100.00;100373.59;6356770;22;20502;-77
2022/10/08 01:06:22;;;;;;;1.38;1.27;;;;;;;11.68;100.00;100375.94;6368292;22;20331;-78
2022/10/08 01:09:03;;;;;;;0.82;0.82;;;;;;;11.69;100.00;100382.25;6368762;22;20323;-78
2022/10/08 01:11:48;;;;;;;1.75;1.65;;;;;;;11.64;100.00;100374.47;6367566;22;20006;-77
2022/10/08 01:14:52;;;;;;;2.63;2.42;;;;;;;11.63;100.00;100367.34;6339531;22;20006;-79
2022/10/08 01:17:25;;;;;;;1.67;1.43;;;;;;;11.62;100.00;100371.34;6367826;22;20451;-78
2022/10/08 01:20:17;;;;;;;1.45;1.35;;;;;;;11.62;100.00;100371.34;6369225;22;20017;-79
2022/10/08 01:22:58;;;;;;;1.40;1.23;;;;;;;11.62;100.00;100371.34;6370494;22;20021;-85
2022/10/08 01:25:39;;;;;;;3.00;2.75;;;;;;;11.63;100.00;100368.13;6369645;22;20406;-87
2022/10/08 01:28:11;;;;;;;2.20;2.08;;;;;;;11.61;100.00;100355.88;6338631;22;20007;-85
2022/10/08 01:30:41;;;;;;;2.20;2.00;;;;;;;11.50;100.00;100347.03;6369292;22;20006;-86
2022/10/08 01:33:14;;;;;;;1.98;1.75;;;;;;;11.47;100.00;100339.59;6368107;22;20018;-86
2022/10/08 01:35:44;;;;;;;1.20;1.13;;;;;;;11.50;100.00;100356.16;6338043;22;20059;-86
2022/10/08 01:38:15;;;;;;;2.60;2.10;;;;;;;11.45;100.00;100342.00;6312585;22;20478;-86
2022/10/08 01:40:41;;;;;;;1.38;1.20;;;;;;;11.39;100.00;100341.75;6339518;22;20033;-77
2022/10/08 01:43:09;;;;;;;2.35;2.15;;;;;;;11.33;100.00;100326.03;6340433;22;20014;-77
2022/10/08 01:45:37;;;;;;;2.35;2.03;;;;;;;11.39;100.00;100340.97;6340443;22;20440;-77
2022/10/08 01:48:11;;;;;;;7.32;2.28;;;;;;;11.39;100.00;100340.97;6340451;22;20006;-77
2022/10/08 01:50:58;;;;;;;1.45;1.35;;;;;;;11.38;100.00;100331.84;6341039;22;20006;-78
2022/10/08 01:53:27;;;;;;;1.15;1.05;;;;;;;11.36;100.00;100336.31;6339465;22;20010;-77
2022/10/08 01:55:54;;;;;;;3.05;2.05;;;;;;;11.38;100.00;100333.84;6339533;22;20006;-77
2022/10/08 01:58:26;;;;;;;1.75;1.65;;;;;;;11.38;100.00;100344.97;6367741;22;20451;-77
2022/10/08 02:00:54;;;;;;;1.60;1.50;;;;;;;11.37;100.00;100333.06;6368423;22;20003;-86
2022/10/08 02:03:19;;;;;;;2.05;1.75;;;;;;;11.36;100.00;100330.75;6367330;22;20714;-86
2022/10/08 02:05:49;;;;;;;1.90;1.63;;;;;;;11.34;100.00;100327.59;6368543;22;20010;-86
2022/10/08 02:08:15;;;;;;;1.63;1.48;;;;;;;11.24;100.00;100324.66;6339893;22;20314;-87
2022/10/08 02:10:40;;;;;;;3.17;2.88;;;;;;;11.22;100.00;100331.88;6367784;22;20010;-86
2022/10/08 02:13:07;;;;;;;2.30;2.10;;;;;;;11.21;100.00;100331.09;6367732;22;20389;-86
2022/10/08 02:15:36;;;;;;;2.72;1.63;;;;;;;11.22;100.00;100324.31;6338412;22;20007;-78
2022/10/08 02:18:13;;;;;;;1.02;1.02;;;;;;;11.18;100.00;100326.41;6312625;22;20022;-87
2022/10/08 02:20:59;;;;;;;2.63;2.33;;;;;;;11.17;100.00;100324.06;6341246;22;20328;-86
2022/10/08 02:23:28;;;;;;;1.33;1.00;;;;;;;11.15;100.00;100315.38;6339872;22;20014;-86
2022/10/08 02:25:59;;;;;;;2.95;2.58;;;;;;;11.08;100.00;100310.03;6338581;22;20047;-86
2022/10/08 02:28:43;;;;;;;1.48;1.35;;;;;;;11.08;100.00;100319.09;6286242;22;20015;-86
2022/10/08 02:31:15;;;;;;;;;;;;;;;11.03;100.00;100325.19;6367862;22;20014;-86
2022/10/08 02:34:07;;;;;;;0.98;0.90;;;;;;;10.97;100.00;100313.03;6338422;22;19912;-87
2022/10/08 02:36:39;;;;;;;1.50;1.25;;;;;;;10.93;100.00;100317.88;6345374;22;20458;-78
2022/10/08 02:39:06;;;;;;;1.98;1.88;;;;;;;10.90;100.00;100310.44;6339836;22;20032;-78
2022/10/08 02:41:40;;;;;;;1.98;1.88;;;;;;;10.94;100.00;100313.91;6313042;22;20005;-77
2022/10/08 02:44:06;;;;;;;;;;;;;;;10.91;100.00;100314.78;6338783;22;20055;-78
2022/10/08 02:46:36;;;;;;;1.55;1.45;;;;;;;10.90;100.00;100317.97;6367458;22;20229;-78
2022/10/08 02:49:26;;;;;;;2.47;1.88;;;;;;;10.83;100.00;100310.59;6365121;22;20014;-78
2022/10/08 02:51:53;;;;;;;1.60;1.50;;;;;;;10.79;100.00;100323.00;6319993;22;20414;-78
2022/10/08 02:54:21;;;;;;;6.35;2.30;;;;;;;10.74;100.00;100316.75;6312909;22;20362;-85
2022/10/08 02:57:28;;;;;;;2.20;1.40;;;;;;;10.71;100.00;100314.06;6365891;22;20013;-79
2022/10/08 02:59:54;;;;;;;3.00;2.10;;;;;;;10.62;100.00;100322.97;6184453;23;20495;-77
2022/10/08 03:02:28;;;;;;;2.42;2.15;;;;;;;10.59;100.00;100331.38;6208634;23;20080;-78
2022/10/08 03:05:00;;;;;;;2.60;2.13;;;;;;;10.54;100.00;100335.44;6266305;22;20026;-78
2022/10/08 03:07:29;;;;;;;1.23;1.13;;;;;;;10.38;100.00;100321.53;6338905;22;20017;-78
2022/10/08 03:09:56;;;;;;;1.98;1.75;;;;;;;10.38;100.00;100329.84;6339162;22;20033;-78
2022/10/08 03:12:21;;;;;;;2.35;2.13;;;;;;;10.28;100.00;100320.53;6338228;22;20447;-78
2022/10/08 03:14:48;;;;;;;2.50;2.05;;;;;;;10.15;100.00;100319.59;6338907;22;20014;-78
2022/10/08 03:17:18;;;;;;;1.27;1.17;;;;;;;10.16;100.00;100323.16;6311668;22;20075;-78
2022/10/08 03:19:43;;;;;;;1.05;1.00;;;;;;;10.15;100.00;100316.84;6337597;22;20042;-78
2022/10/08 03:22:09;;;;;;;1.00;1.00;;;;;;;10.18;100.00;100321.53;6338033;22;20013;-78
2022/10/08 03:24:35;;;;;;;2.47;2.30;;;;;;;10.14;100.00;100309.72;6339158;22;20018;-78
2022/10/08 03:27:00;;;;;;;2.67;2.47;;;;;;;10.15;100.00;100305.00;6366736;22;20455;-78
2022/10/08 03:29:26;;;;;;;8.93;3.45;;;;;;;10.12;100.00;100303.81;6337779;22;20014;-78
2022/10/08 03:31:51;;;;;;;2.13;1.40;;;;;;;10.21;100.00;100308.81;6367169;22;20470;-78
2022/10/08 03:34:17;;;;;;;1.77;1.17;;;;;;;10.25;100.00;100306.75;6364510;22;20045;-87
2022/10/08 03:36:42;;;;;;;1.58;1.48;;;;;;;10.17;100.00;100306.13;6338480;22;20012;-87
2022/10/08 03:39:09;;;;;;;1.45;1.08;;;;;;;10.16;100.00;100312.84;6365855;22;20010;-87
2022/10/08 03:41:35;;;;;;;1.48;1.38;;;;;;;10.14;100.00;100320.03;6338274;22;20018;-87
2022/10/08 03:44:00;;;;;;;1.33;1.23;;;;;;;10.16;100.00;100312.84;6366389;22;19999;-87
2022/10/08 03:46:26;;;;;;;1.50;1.40;;;;;;;10.07;100.00;100307.06;6339080;22;20022;-87
2022/10/08 03:48:51;;;;;;;1.23;1.13;;;;;;;10.08;100.00;100319.72;6365984;22;20017;-89
2022/10/08 03:51:18;;;;;;;1.80;1.45;;;;;;;10.08;100.00;100321.72;6338251;22;20492;-78
2022/10/08 03:53:43;;;;;;;1.70;1.60;;;;;;;10.07;100.00;100320.16;6366250;22;20010;-87
2022/10/08 03:56:18;;;;;;;1.98;1.67;;;;;;;10.08;100.00;100318.94;6366439;22;20006;-88
2022/10/08 03:58:44;;;;;;;2.17;1.65;;;;;;;10.11;100.00;100316.09;6366375;22;20437;-88
2022/10/08 04:01:14;;;;;;;1.83;1.73;;;;;;;10.12;100.00;100317.66;6365575;22;20009;-88
2022/10/08 04:03:40;;;;;;;2.22;2.08;;;;;;;10.12;100.00;100317.66;6364849;22;20471;-87
2022/10/08 04:06:06;;;;;;;1.90;1.38;;;;;;;10.12;100.00;100316.88;6365707;22;20075;-88
2022/10/08 04:08:32;;;;;;;3.35;1.52;;;;;;;10.11;100.00;100309.78;6338846;22;20010;-88
2022/10/08 04:11:02;;;;;;;1.40;1.30;;;;;;;10.06;100.00;100302.75;6366417;22;20103;-87
2022/10/08 04:13:28;;;;;;;4.45;2.35;;;;;;;10.05;100.00;100305.94;6366250;22;20014;-77
2022/10/08 04:15:59;;;;;;;1.45;1.33;;;;;;;10.03;100.00;100300.81;6366181;22;20059;-77
2022/10/08 04:18:25;;;;;;;1.20;0.88;;;;;;;10.04;100.00;100310.69;6365947;22;20343;-78
2022/10/08 04:20:55;;;;;;;3.17;2.13;;;;;;;10.06;100.00;100313.84;6339005;22;20010;-77
2022/10/08 04:23:21;;;;;;;0.95;0.73;;;;;;;10.02;100.00;100299.28;6365648;22;20497;-77
2022/10/08 04:25:50;;;;;;;0.75;0.75;;;;;;;9.95;100.00;100299.41;6338060;22;20014;-77
2022/10/08 04:28:16;;;;;;;2.28;2.13;;;;;;;9.94;100.00;100306.16;6338173;22;20586;-78
2022/10/08 04:30:41;;;;;;;2.05;1.40;;;;;;;9.93;100.00;100301.81;6365967;22;20003;-87
2022/10/08 04:33:07;;;;;;;1.63;1.23;;;;;;;9.97;100.00;100299.75;6365766;22;20089;-77
2022/10/08 04:35:36;;;;;;;2.70;2.20;;;;;;;10.04;100.00;100305.16;6367767;22;20034;-77
2022/10/08 04:38:02;;;;;;;4.30;3.53;;;;;;;10.01;100.00;100306.03;6365195;22;20010;-79
2022/10/08 04:40:27;;;;;;;1.88;1.13;;;;;;;9.97;100.00;100305.31;6364994;22;20078;-79
2022/10/08 04:42:53;;;;;;;2.00;1.90;;;;;;;9.99;100.00;100297.34;6366462;22;20109;-79
2022/10/08 04:45:18;;;;;;;1.80;1.17;;;;;;;9.94;100.00;100310.94;6365896;22;20072;-79
2022/10/08 04:47:43;;;;;;;1.67;1.58;;;;;;;9.92;100.00;100305.78;6365043;22;20010;-78
2022/10/08 04:50:09;;;;;;;2.35;1.75;;;;;;;9.83;100.00;100311.13;6365913;22;20093;-78
2022/10/08 04:52:34;;;;;;;1.15;1.05;;;;;;;9.84;100.00;100312.69;6345114;22;19998;-85
2022/10/08 04:55:00;;;;;;;1.65;1.38;;;;;;;9.84;100.00;100307.94;6377654;22;20010;-84
2022/10/08 04:57:25;;;;;;;0.98;0.90;;;;;;;9.84;100.00;100309.91;6340488;22;20021;-88
2022/10/08 04:59:51;;;;;;;3.03;2.00;;;;;;;9.76;100.00;100311.25;6368427;22;20073;-86
2022/10/08 05:02:16;;;;;;;1.25;1.10;;;;;;;9.77;100.00;100313.63;6340805;22;20037;-87
2022/10/08 05:04:42;;;;;;;4.47;1.83;;;;;;;9.71;100.00;100303.44;6367563;22;20056;-88
2022/10/08 05:07:07;;;;;;;1.50;1.40;;;;;;;9.67;100.00;100302.72;6373272;22;20026;-87
2022/10/08 05:09:33;;;;;;;2.42;2.15;;;;;;;9.67;100.00;100311.81;6374503;22;20064;-88
2022/10/08 05:11:59;;;;;;;1.52;1.38;;;;;;;9.63;100.00;100308.31;6366770;22;20026;-85
2022/10/08 05:14:24;;;;;;;3.45;2.15;;;;;;;9.66;100.00;100312.25;6342310;22;20439;-85
2022/10/08 05:16:50;;;;;;;0.93;0.93;;;;;;;9.60;100.00;100291.78;6370502;22;20017;-88
2022/10/08 05:19:15;;;;;;;0.68;0.68;;;;;;;9.64;100.00;100314.66;6368420;22;20033;-87
2022/10/08 05:21:40;;;;;;;3.03;2.22;;;;;;;9.65;100.00;100305.16;6370732;22;19998;-85
2022/10/08 05:24:07;;;;;;;1.58;1.42;;;;;;;9.72;100.00;100319.63;6340459;22;20573;-87
2022/10/08 05:26:35;;;;;;;1.40;1.23;;;;;;;9.76;100.00;100303.72;6370913;22;20483;-88
2022/10/08 05:29:01;;;;;;;1.77;1.55;;;;;;;9.83;100.00;100311.13;6366119;22;20014;-78
2022/10/08 05:31:28;;;;;;;1.45;1.35;;;;;;;9.89;100.00;100317.75;6339733;22;20030;-79
2022/10/08 05:33:54;;;;;;;2.53;2.33;;;;;;;10.00;100.00;100314.75;6367718;22;20009;-79
2022/10/08 05:36:25;;;;;;;1.65;1.52;;;;;;;10.10;100.00;100309.00;6367166;22;20010;-79
2022/10/08 05:38:51;;;;;;;1.20;1.15;;;;;;;10.20;100.00;100298.91;6338972;22;20014;-79
2022/10/08 05:41:25;;;;;;;3.20;3.00;;;;;;;10.36;100.00;100323.94;6368309;22;20014;-78
2022/10/08 05:43:52;;;;;;;3.20;2.38;;;;;;;10.44;100.00;100302.38;6368224;22;20011;-79
2022/10/08 05:46:21;;;;;;;2.75;1.42;;;;;;;10.60;100.00;100324.59;6368240;22;20386;-77
2022/10/08 05:48:47;;;;;;;1.35;1.23;;;;;;;10.69;100.00;100325.56;6367435;22;20010;-79
2022/10/08 05:51:15;;;;;;;1.90;1.80;;;;;;;10.71;100.00;100319.59;6339901;22;20059;-79
2022/10/08 05:53:43;;;;;;;1.17;1.15;;;;;;;10.63;100.00;100334.84;6314564;22;20017;-79
2022/10/08 05:56:10;;;;;;;0.40;0.40;;;;;;;10.48;100.00;100328.03;6368633;22;20016;-79
2022/10/08 05:58:38;;;;;;;1.40;1.30;;;;;;;10.38;100.00;100335.38;6368718;22;20018;-79
2022/10/08 06:01:08;;;;;;;1.90;1.77;;;;;;;10.27;100.00;100341.13;6340715;22;20163;-79
2022/10/08 06:03:33;;;;;;;1.27;1.17;;;;;;;10.21;100.00;100347.63;6339917;22;20043;-79
2022/10/08 06:06:05;;;;;;;1.30;1.20;;;;;;;10.15;100.00;100344.56;6368149;22;20018;-78
2022/10/08 06:08:31;;;;;;;0.50;0.50;;;;;;;10.09;100.00;100339.91;6339949;22;20007;-78
2022/10/08 06:10:57;;;;;;;3.08;2.35;;;;;;;10.12;100.00;100356.47;6368300;22;20006;-78
2022/10/08 06:13:22;;;;;;;2.00;1.45;;;;;;;10.05;100.00;100356.63;6340172;22;20010;-79
2022/10/08 06:16:06;;;;;;;1.67;1.35;;;;;;;9.96;100.00;100359.16;6314284;22;20029;-78
2022/10/08 06:18:36;;;;;;;1.25;1.13;;;;;;;9.99;100.00;100363.84;6313192;22;20028;-77
2022/10/08 06:21:13;;;;;;;1.45;1.13;;;;;;;9.98;100.00;100361.50;6368043;22;20456;-77
2022/10/08 06:23:44;;;;;;;2.53;1.75;;;;;;;9.99;100.00;100358.31;6368248;22;20030;-78
2022/10/08 06:26:10;;;;;;;2.75;1.90;;;;;;;10.04;100.00;100359.81;6371226;22;20036;-77
2022/10/08 06:28:36;;;;;;;1.48;1.38;;;;;;;10.19;100.00;100350.81;6367836;22;20423;-77
2022/10/08 06:31:03;;;;;;;2.00;1.25;;;;;;;10.29;100.00;100366.47;6368459;22;20085;-77
2022/10/08 06:33:29;;;;;;;1.55;1.45;;;;;;;10.51;100.00;100377.13;6339691;22;20072;-78
2022/10/08 06:35:54;;;;;;;2.13;2.00;;;;;;;10.68;100.00;100375.94;6367957;22;20384;-77
2022/10/08 06:38:20;;;;;;;2.40;2.20;;;;;;;10.83;100.00;100376.44;6340078;22;20014;-78
2022/10/08 06:40:46;;;;;;;3.38;3.08;;;;;;;10.97;100.00;100376.09;6368634;22;20033;-78
2022/10/08 06:43:16;;;;;;;3.30;3.05;;;;;;;11.07;100.00;100381.41;6368321;22;20060;-89
2022/10/08 06:45:43;;;;;;;0.57;0.57;;;;;;;11.19;100.00;100377.94;6341927;22;20089;-90
2022/10/08 06:48:09;;;;;;;2.40;1.98;;;;;;;11.31;100.00;100379.25;6340618;22;20436;-91
2022/10/08 06:50:35;;;;;;;3.40;3.15;;;;;;;11.40;100.00;100382.22;6341684;22;20030;-89
2022/10/08 06:53:02;;;;;;;4.35;1.73;;;;;;;11.45;100.00;100390.00;6369504;22;20447;-90
2022/10/08 06:55:28;;;;;;;2.58;2.38;;;;;;;11.47;100.00;100387.59;6369939;22;20010;-88
2022/10/08 06:57:53;;;;;;;3.60;3.30;;;;;;;11.49;100.00;100384.34;6341837;22;20009;-90
2022/10/08 07:00:22;;;;;;;3.75;2.55;;;;;;;11.60;100.00;100382.13;6343073;22;20011;-90
2022/10/08 07:02:47;;;;;;;3.50;3.20;;;;;;;11.66;100.00;100366.47;6341506;22;20045;-78
2022/10/08 07:05:13;;;;;;;2.78;1.88;;;;;;;11.56;100.00;100384.19;6367242;22;20042;-78
2022/10/08 07:07:38;;;;;;;2.97;2.78;;;;;;;11.60;100.00;100391.22;6367099;22;20006;-78
2022/10/08 07:10:04;;;;;;;5.78;3.92;;;;;;;11.65;100.00;100387.13;6367395;22;20013;-78
2022/10/08 07:12:30;;;;;;;2.78;2.35;;;;;;;11.75;100.00;100382.56;6367493;22;20006;-78
2022/10/08 07:14:55;;;;;;;3.08;2.33;;;;;;;11.88;100.00;100389.75;6339821;22;20124;-77
2022/10/08 07:17:21;;;;;;;4.80;4.10;;;;;;;12.01;100.00;100396.13;6365297;22;20026;-77
2022/10/08 07:19:47;;;;;;;3.72;3.30;;;;;;;12.04;100.00;100392.50;6367627;22;20010;-77
2022/10/08 07:22:12;;;;;;;4.10;3.70;;;;;;;12.02;100.00;100389.34;6369675;22;20480;-89
2022/10/08 07:24:38;;;;;;;2.40;1.95;;;;;;;12.16;100.00;100388.19;6373192;22;20011;-89
2022/10/08 07:27:03;;;;;;;4.15;3.50;;;;;;;12.24;100.00;100383.22;6341452;22;20013;-89
2022/10/08 07:29:28;;;;;;;2.05;1.95;;;;;;;12.43;100.00;100388.63;6371653;22;20010;-90
2022/10/08 07:31:54;;;;;;;9.40;4.57;;;;;;;12.60;100.00;100389.31;6346100;22;19998;-91
2022/10/08 07:34:19;;;;;;;3.40;2.20;;;;;;;12.84;100.00;100396.16;6371772;22;20015;-89
2022/10/08 07:36:45;;;;;;;4.47;3.22;;;;;;;12.97;100.00;100391.38;6370181;22;20059;-90
2022/10/08 07:39:12;;;;;;;8.75;3.20;;;;;;;13.16;100.00;100394.41;6374423;22;20017;-90
2022/10/08 07:41:38;;;;;;;3.65;3.35;;;;;;;13.41;100.00;100399.97;6368372;22;20015;-78
2022/10/08 07:44:04;;;;;;;5.85;3.30;;;;;;;13.49;100.00;100393.72;6373183;22;20081;-89
2022/10/08 07:46:35;;;;;;;3.38;2.72;;;;;;;13.37;100.00;100399.31;6341552;22;20017;-90
2022/10/08 07:49:01;;;;;;;1.95;1.77;;;;;;;13.43;100.00;100397.50;6372692;22;20020;-87
2022/10/08 07:51:28;;;;;;;3.58;3.08;;;;;;;13.63;100.00;100398.03;6372505;22;20006;-90
2022/10/08 07:53:54;;;;;;;4.15;3.80;;;;;;;13.86;100.00;100397.66;6368152;22;20010;-90
2022/10/08 07:56:21;;;;;;;3.70;2.42;;;;;;;13.97;100.00;100388.91;6368052;22;20021;-89
2022/10/08 07:58:47;;;;;;;2.08;1.95;;;;;;;13.78;100.00;100390.75;6369624;22;20015;-90
2022/10/08 08:01:15;;;;;;;3.42;3.17;;;;;;;13.83;100.00;100384.59;6340128;22;20014;-78
2022/10/08 08:03:41;;;;;;;3.90;3.60;;;;;;;14.02;100.00;100397.50;6367658;22;20372;-88
2022/10/08 08:06:09;;;;;;;2.10;1.77;;;;;;;14.06;100.00;100399.38;6368605;22;20369;-88
2022/10/08 08:08:36;;;;;;;3.53;2.35;;;;;;;14.21;100.00;100392.03;6368181;22;20095;-89
2022/10/08 08:11:03;;;;;;;3.70;3.40;;;;;;;14.32;100.00;100392.44;6368544;22;20010;-90
2022/10/08 08:13:30;;;;;;;2.67;2.17;;;;;;;14.49;100.00;100391.03;6340985;22;20006;-90
2022/10/08 08:16:00;;;;;;;3.97;3.67;;;;;;;14.61;100.00;100387.41;6367501;22;20003;-89
2022/10/08 08:18:30;;;;;;;3.70;3.33;;;;;;;14.79;100.00;100383.94;6367416;22;20083;-89
2022/10/08 08:21:00;;;;;;;3.17;2.88;;;;;;;14.93;100.00;100392.53;6339461;22;20014;-79
2022/10/08 08:23:30;;;;;;;2.55;2.33;;;;;;;14.94;100.00;100387.72;6366588;22;20177;-79
2022/10/08 08:25:59;;;;;;;2.95;2.45;;;;;;;15.01;100.00;100378.28;6341134;22;20010;-79
2022/10/08 08:28:24;;;;;;;6.55;2.67;;;;;;;15.07;100.00;100387.63;6368802;22;20113;-79
2022/10/08 08:30:50;;;;;;;2.75;2.28;;;;;;;15.06;100.00;100377.69;6340792;22;20459;-79
2022/10/08 08:33:15;;;;;;;2.90;2.70;;;;;;;15.07;100.00;100387.63;6315380;22;20008;-79
2022/10/08 08:35:49;;;;;;;2.55;2.33;;;;;;;15.35;100.00;100375.31;6340472;22;20058;-79
2022/10/08 08:38:15;;;;;;;2.17;1.85;;;;;;;15.53;100.00;100389.34;6341379;22;20041;-78
2022/10/08 08:40:40;;;;;;;2.80;2.60;;;;;;;15.65;100.00;100382.84;6369013;22;20010;-87
2022/10/08 08:43:06;;;;;;;3.78;2.88;;;;;;;15.60;100.00;100377.91;6369099;22;20460;-88
2022/10/08 08:45:34;;;;;;;6.05;4.80;;;;;;;15.43;100.00;100384.19;6367687;22;20018;-89
2022/10/08 08:48:32;;;;;;;3.63;3.28;;;;;;;15.48;100.00;100387.16;6315214;22;20010;-88
2022/10/08 08:50:58;;;;;;;1.98;1.88;;;;;;;15.60;100.00;100385.50;6369546;22;20014;-88
2022/10/08 08:53:24;;;;;;;4.40;2.80;;;;;;;15.60;100.00;100391.09;6341012;22;20009;-88
2022/10/08 08:55:53;;;;;;;4.65;3.10;;;;;;;15.66;100.00;100386.44;6341324;22;20304;-88
2022/10/08 08:58:41;;;;;;;2.97;2.72;;;;;;;15.73;100.00;100381.31;6315661;22;20019;-88
2022/10/08 09:01:07;;;;;;;3.67;2.25;;;;;;;15.92;100.00;100378.56;6337269;22;20018;-78
2022/10/08 09:03:39;;;;;;;4.25;3.65;;;;;;;15.99;100.00;100383.84;6366341;22;20014;-78
2022/10/08 09:06:13;;;;;;;3.38;2.60;;;;;;;16.16;100.00;100380.28;6287197;22;20022;-78
2022/10/08 09:08:56;;;;;;;;;;;;;;;16.08;100.00;100389.44;6340648;22;20032;-78
2022/10/08 09:11:22;;;;;;;2.13;2.03;;;;;;;16.30;100.00;100378.84;6366567;22;19980;-78
2022/10/08 09:14:16;;;;;;;3.22;2.83;;;;;;;16.30;100.00;100390.03;6366551;22;20021;-78
2022/10/08 09:16:41;;;;;;;2.80;2.47;;;;;;;16.32;100.00;100376.38;6366017;22;20014;-78
2022/10/08 09:19:08;;;;;;;2.92;2.65;;;;;;;16.50;100.00;100381.94;6339387;22;20029;-88
2022/10/08 09:21:33;;;;;;;4.35;3.53;;;;;;;16.64;100.00;100377.75;6338757;22;20046;-88
2022/10/08 09:23:59;;;;;;;3.28;2.97;;;;;;;16.90;100.00;100378.94;6340206;22;20011;-89
2022/10/08 09:26:29;;;;;;;6.18;3.10;;;;;;;17.01;100.00;100381.22;6368232;22;20018;-89
2022/10/08 09:29:00;;;;;;;3.47;2.75;;;;;;;17.22;100.00;100380.19;6368627;22;20089;-88
2022/10/08 09:31:29;;;;;;;5.55;4.43;;;;;;;17.12;100.00;100376.66;6359218;22;20006;-88
2022/10/08 09:34:12;;;;;;;3.20;2.42;;;;;;;17.07;100.00;100384.91;6357486;22;20014;-88
2022/10/08 09:36:44;;;;;;;7.50;3.40;;;;;;;17.21;100.00;100384.25;6371154;22;20444;-80
2022/10/08 09:39:33;;;;;;;3.60;2.55;;;;;;;17.22;100.00;100386.59;6354295;22;20018;-88
2022/10/08 09:42:05;;;;;;;6.07;4.28;;;;;;;17.16;100.00;100376.47;6338527;22;20029;-89
2022/10/08 09:44:48;;;;;;;3.45;2.42;;;;;;;17.14;100.00;100373.38;6364809;22;20006;-89
2022/10/08 09:47:24;;;;;;;3.55;3.10;;;;;;;17.18;100.00;100368.38;6337919;22;20042;-88
2022/10/08 09:50:06;;;;;;;3.70;2.67;;;;;;;17.26;100.00;100369.59;6338937;22;20375;-88
2022/10/08 09:52:33;;;;;;;3.17;2.97;;;;;;;17.47;100.00;100382.53;6364637;22;20509;-88
2022/10/08 09:55:18;;;;;;;3.85;2.40;;;;;;;17.64;100.00;100378.09;6337215;22;20002;-79
2022/10/08 09:57:46;;;;;;;4.45;3.30;;;;;;;17.68;100.00;100369.50;6332777;22;20022;-88
2022/10/08 10:00:25;;;;;;;2.47;1.55;;;;;;;17.90;100.00;100378.41;6335817;22;20012;-88
2022/10/08 10:02:54;;;;;;;3.22;2.08;;;;;;;18.00;100.00;100368.63;6365598;22;20030;-88
2022/10/08 10:05:32;;;;;;;2.53;2.33;;;;;;;18.17;100.00;100360.56;6337635;22;20010;-89
2022/10/08 10:07:57;;;;;;;2.17;1.98;;;;;;;17.76;100.00;100367.13;6366403;22;20037;-89
2022/10/08 10:10:28;;;;;;;5.03;3.08;;;;;;;17.87;100.00;100361.75;6367168;22;20003;-89
2022/10/08 10:13:05;;;;;;;2.35;2.15;;;;;;;18.21;100.00;100358.34;6366260;22;20022;-89
2022/10/08 10:15:37;;;;;;;3.45;2.20;;;;;;;18.20;98.46;100358.84;6337679;22;20336;-79
2022/10/08 10:18:17;;;;;;;1.30;1.20;;;;;;;18.33;95.96;100362.13;6366117;22;20006;-79
2022/10/08 10:20:52;;;;;;;1.92;1.75;;;;;;;18.16;97.06;100361.78;6363277;22;20010;-78
2022/10/08 10:23:21;;;;;;;3.20;2.80;;;;;;;17.92;97.02;100358.25;6337513;22;20010;-79
2022/10/08 10:25:49;;;;;;;1.15;1.08;;;;;;;18.20;95.89;100356.03;6311876;22;20061;-79
2022/10/08 10:28:33;;;;;;;3.55;2.60;;;;;;;18.22;95.04;100348.66;6338444;22;20010;-77
2022/10/08 10:31:02;;;;;;;4.68;1.35;;;;;;;18.16;96.64;100339.34;6336995;22;20018;-79
2022/10/08 10:33:31;;;;;;;5.57;3.33;;;;;;;18.39;96.63;100341.31;6338526;22;20132;-79
2022/10/08 10:36:03;;;;;;;1.38;1.27;;;;;;;18.38;95.97;100338.97;6337624;22;20033;-88
2022/10/08 10:38:31;;;;;;;2.80;2.33;;;;;;;18.15;97.87;100340.63;6365416;22;20150;-87
2022/10/08 10:41:21;;;;;;;1.98;1.75;;;;;;;18.48;95.41;100334.84;6337735;22;20022;-89
2022/10/08 10:44:06;;;;;;;1.70;1.15;;;;;;;18.67;96.83;100332.63;6312050;22;20021;-87
2022/10/08 10:46:52;;;;;;;2.58;1.92;;;;;;;18.50;96.88;100324.66;6337880;22;20031;-88
2022/10/08 10:49:21;;;;;;;2.65;2.45;;;;;;;18.35;96.54;100323.09;6337703;22;20016;-87
2022/10/08 10:52:07;;;;;;;2.65;2.40;;;;;;;18.69;97.47;100324.47;6365940;22;20022;-89
2022/10/08 10:55:09;;;;;;;2.95;2.33;;;;;;;19.08;96.91;100318.22;6285488;22;20026;-79
2022/10/08 10:57:47;;;;;;;4.07;2.45;;;;;;;19.34;91.58;100315.50;6366042;22;20018;-79
2022/10/08 11:00:22;;;;;;;2.35;1.80;;;;;;;19.53;91.13;100310.44;6365187;22;20462;-79
2022/10/08 11:03:26;;;;;;;2.75;2.55;;;;;;;19.34;91.52;100314.72;6337519;22;20016;-79
2022/10/08 11:06:05;;;;;;;;;;;;;;;19.15;91.59;100308.59;6348680;22;20029;-79
2022/10/08 11:08:37;;;;;;;2.58;2.30;;;;;;;19.40;88.65;100305.09;6336487;22;19909;-79
2022/10/08 11:11:20;;;;;;;2.65;1.92;;;;;;;19.45;91.92;100301.59;6366486;22;20010;-88
2022/10/08 11:14:04;;;;;;;2.47;1.48;;;;;;;19.71;90.99;100301.69;6337946;22;20021;-80
2022/10/08 11:16:50;;;;;;;1.92;1.80;;;;;;;19.74;87.85;100295.06;6337315;22;20343;-78
2022/10/08 11:19:16;;;;;;;2.80;2.53;;;;;;;19.89;89.15;100301.41;6364631;22;20056;-79
2022/10/08 11:22:24;;;;;;;2.13;1.52;;;;;;;20.02;88.36;100301.78;6338706;22;20011;-77
2022/10/08 11:25:10;;;;;;;1.52;1.42;;;;;;;19.93;86.82;100299.13;6364705;22;20021;-78
2022/10/08 11:27:48;;;;;;;3.25;1.83;;;;;;;20.02;86.94;100301.00;6364926;22;20466;-79
2022/10/08 11:30:18;;;;;;;1.83;1.60;;;;;;;20.02;86.57;100295.38;6366298;22;20002;-88
2022/10/08 11:32:51;;;;;;;1.58;1.45;;;;;;;19.68;85.10;100280.16;6345072;22;20081;-90
2022/10/08 11:35:23;;;;;;;1.92;1.73;;;;;;;19.76;87.58;100289.72;6364280;22;20010;-88
2022/10/08 11:38:29;;;;;;;8.15;2.03;;;;;;;19.62;87.74;100292.59;6349251;22;20086;-88